createdAt,value
2023-04-08T00:02:23.653Z,5.41
2023-04-08T00:04:52.346Z,5.38
2023-04-08T00:07:21.011Z,5.35
2023-04-08T00:09:50.492Z,5.35
2023-04-08T00:12:19.566Z,5.46
2023-04-08T00:14:48.277Z,5.49
2023-04-08T00:17:17.002Z,5.41
2023-04-08T00:19:45.947Z,5.32
2023-04-08T00:22:14.551Z,5.38
2023-04-08T00:24:43.293Z,5.40
2023-04-08T00:27:11.988Z,5.33
2023-04-08T00:29:43.212Z,5.17
2023-04-08T00:32:11.973Z,5.09
2023-04-08T00:34:40.611Z,5.09
2023-04-08T00:37:09.983Z,4.94
2023-04-08T00:39:39.007Z,4.87
2023-04-08T00:42:07.676Z,4.76
2023-04-08T00:44:36.559Z,4.85
2023-04-08T00:47:06.241Z,4.82
2023-04-08T00:49:35.012Z,4.72
2023-04-08T00:52:03.669Z,4.78
2023-04-08T00:54:36.288Z,4.76
2023-04-08T00:57:06.461Z,4.75
2023-04-08T00:59:37.357Z,4.80
2023-04-08T01:02:20.814Z,4.89
2023-04-08T01:05:11.011Z,4.80
2023-04-08T01:07:48.381Z,4.83
2023-04-08T01:10:20.019Z,4.83
2023-04-08T01:12:51.630Z,4.77
2023-04-08T01:15:21.414Z,4.71
2023-04-08T01:17:53.038Z,4.71
2023-04-08T01:20:22.885Z,4.68
2023-04-08T01:22:54.964Z,4.86
2023-04-08T01:25:32.625Z,4.80
2023-04-08T01:28:07.063Z,4.87
2023-04-08T01:30:38.113Z,4.91
2023-04-08T01:33:08.483Z,4.97
2023-04-08T01:35:37.765Z,4.81
2023-04-08T01:38:09.519Z,4.75
2023-04-08T01:40:40.438Z,4.68
2023-04-08T01:43:11.413Z,4.78
2023-04-08T01:45:40.498Z,4.83
2023-04-08T01:48:10.337Z,4.87
2023-04-08T01:50:39.665Z,4.85
2023-04-08T01:53:10.912Z,5.01
2023-04-08T01:55:41.671Z,4.96
2023-04-08T01:58:13.126Z,4.96
2023-04-08T02:00:43.564Z,5.05
2023-04-08T02:03:14.553Z,5.07
2023-04-08T02:05:43.424Z,5.02
2023-04-08T02:08:13.207Z,5.07
2023-04-08T02:10:41.918Z,5.07
2023-04-08T02:13:10.638Z,5.20
2023-04-08T02:15:41.983Z,5.07
2023-04-08T02:18:16.744Z,5.10
2023-04-08T02:20:51.486Z,5.14
2023-04-08T02:23:23.493Z,5.03
2023-04-08T02:25:54.219Z,4.97
2023-04-08T02:28:24.496Z,4.93
2023-04-08T02:30:54.404Z,4.80
2023-04-08T02:33:24.263Z,4.74
2023-04-08T02:35:55.803Z,4.72
2023-04-08T02:38:24.591Z,4.78
2023-04-08T02:40:53.332Z,4.72
2023-04-08T02:43:22.376Z,4.50
2023-04-08T02:45:51.091Z,4.51
2023-04-08T02:48:19.841Z,4.40
2023-04-08T02:50:48.391Z,4.46
2023-04-08T02:53:17.060Z,4.38
2023-04-08T02:55:45.640Z,4.56
2023-04-08T02:58:14.311Z,4.55
2023-04-08T03:00:43.086Z,4.58
2023-04-08T03:03:11.951Z,4.49
2023-04-08T03:05:40.821Z,4.44
2023-04-08T03:08:09.546Z,4.57
2023-04-08T03:10:38.265Z,4.72
2023-04-08T03:13:06.875Z,4.59
2023-04-08T03:15:35.659Z,4.56
2023-04-08T03:18:04.729Z,4.58
2023-04-08T03:20:33.522Z,4.80
2023-04-08T03:23:02.240Z,4.61
2023-04-08T03:25:31.649Z,4.63
2023-04-08T03:28:02.957Z,4.60
2023-04-08T03:30:32.794Z,4.64
2023-04-08T03:33:03.372Z,4.70
2023-04-08T03:35:33.435Z,4.77
2023-04-08T03:38:02.329Z,4.81
2023-04-08T03:40:32.492Z,4.79
2023-04-08T03:43:01.260Z,4.72
2023-04-08T03:45:29.956Z,4.60
2023-04-08T03:47:58.598Z,4.59
2023-04-08T03:50:27.395Z,4.59
2023-04-08T03:52:56.067Z,4.62
2023-04-08T03:55:24.865Z,4.63
2023-04-08T03:57:53.552Z,4.63
2023-04-08T04:00:22.260Z,4.57
2023-04-08T04:02:51.037Z,4.62
2023-04-08T04:05:19.789Z,4.55
2023-04-08T04:07:48.399Z,4.59
2023-04-08T04:10:17.301Z,4.59
2023-04-08T04:12:47.399Z,4.62
2023-04-08T04:15:16.243Z,4.69
2023-04-08T04:17:45.021Z,4.73
2023-04-08T04:20:14.054Z,4.69
2023-04-08T04:22:45.076Z,4.70
2023-04-08T04:25:18.717Z,4.55
2023-04-08T04:27:47.841Z,4.58
2023-04-08T04:30:19.746Z,4.59
2023-04-08T04:32:50.968Z,4.73
2023-04-08T04:35:19.937Z,4.82
2023-04-08T04:37:50.387Z,4.85
2023-04-08T04:40:21.501Z,4.90
2023-04-08T04:42:50.100Z,4.93
2023-04-08T04:45:20.419Z,4.96
2023-04-08T04:47:49.151Z,4.84
2023-04-08T04:50:17.937Z,4.94
2023-04-08T04:52:46.613Z,4.99
2023-04-08T04:55:16.187Z,5.01
2023-04-08T04:57:45.066Z,5.19
2023-04-08T05:00:13.968Z,5.03
2023-04-08T05:02:42.764Z,4.99
2023-04-08T05:05:11.818Z,5.02
2023-04-08T05:07:40.750Z,5.05
2023-04-08T05:10:11.196Z,5.03
2023-04-08T05:12:40.207Z,5.18
2023-04-08T05:15:09.776Z,5.10
2023-04-08T05:17:38.783Z,5.31
2023-04-08T05:20:08.607Z,5.53
2023-04-08T05:22:37.401Z,5.52
2023-04-08T05:25:07.180Z,5.52
2023-04-08T05:27:35.886Z,5.75
2023-04-08T05:30:04.971Z,5.62
2023-04-08T05:32:33.832Z,5.65
2023-04-08T05:35:04.768Z,5.96
2023-04-08T05:37:33.414Z,6.08
2023-04-08T05:40:02.184Z,6.39
2023-04-08T05:42:32.195Z,6.50
2023-04-08T05:45:02.573Z,6.62
2023-04-08T05:47:31.625Z,6.82
2023-04-08T05:50:00.335Z,6.95
2023-04-08T05:52:29.329Z,6.96
2023-04-08T05:54:57.993Z,6.96
2023-04-08T06:00:55.689Z,7.24
2023-04-08T06:03:24.553Z,7.37
2023-04-08T06:05:54.942Z,7.34
2023-04-08T06:08:27.011Z,7.35
2023-04-08T06:10:55.694Z,7.50
2023-04-08T06:13:26.059Z,7.78
2023-04-08T06:16:03.433Z,7.78
2023-04-08T06:18:32.471Z,7.87
2023-04-08T06:24:29.906Z,7.85
2023-04-08T06:26:58.925Z,7.80
2023-04-08T06:29:29.530Z,8.01
2023-04-08T06:32:01.841Z,8.18
2023-04-08T06:34:30.781Z,8.32
2023-04-08T06:36:59.695Z,8.52
2023-04-08T06:39:28.635Z,8.57
2023-04-08T06:41:58.188Z,8.09
2023-04-08T06:44:29.017Z,8.28
2023-04-08T06:46:59.141Z,8.18
2023-04-08T06:49:31.294Z,8.50
2023-04-08T06:52:02.027Z,8.62
2023-04-08T06:54:34.111Z,8.59
2023-04-08T06:57:04.311Z,8.55
2023-04-08T06:59:33.064Z,8.77
2023-04-08T07:02:03.553Z,8.78
2023-04-08T07:04:36.082Z,8.93
2023-04-08T07:07:06.010Z,8.58
2023-04-08T07:09:42.274Z,8.71
2023-04-08T07:12:10.943Z,8.80
2023-04-08T07:14:39.567Z,9.11
2023-04-08T07:17:08.453Z,9.10
2023-04-08T07:19:37.741Z,9.30
2023-04-08T07:22:16.382Z,9.58
2023-04-08T07:28:14.241Z,9.57
2023-04-08T07:30:43.117Z,9.72
2023-04-08T07:33:12.012Z,9.21
2023-04-08T07:35:42.174Z,9.34
2023-04-08T07:38:12.166Z,9.50
2023-04-08T07:40:41.441Z,9.53
2023-04-08T07:43:10.190Z,9.55
2023-04-08T07:45:38.907Z,9.90
2023-04-08T07:48:07.962Z,9.59
2023-04-08T07:51:08.960Z,10.19
2023-04-08T07:53:10.081Z,10.03
2023-04-08T07:55:43.280Z,10.26
2023-04-08T07:58:12.404Z,10.69
2023-04-08T08:00:41.495Z,11.03
2023-04-08T08:03:10.501Z,11.37
2023-04-08T08:05:39.345Z,11.39
2023-04-08T08:08:08.132Z,11.62
2023-04-08T08:10:36.817Z,11.34
2023-04-08T08:13:06.369Z,10.88
2023-04-08T08:15:35.411Z,11.29
2023-04-08T08:18:04.120Z,10.95
2023-04-08T08:20:32.773Z,11.30
2023-04-08T08:23:01.388Z,11.19
2023-04-08T08:25:30.228Z,11.16
2023-04-08T08:27:58.824Z,11.67
2023-04-08T08:30:27.749Z,11.70
2023-04-08T08:32:58.002Z,11.76
2023-04-08T08:35:27.266Z,11.99
2023-04-08T08:37:57.314Z,11.77
2023-04-08T08:40:26.102Z,12.11
2023-04-08T08:42:55.054Z,11.95
2023-04-08T08:45:25.359Z,11.88
2023-04-08T08:47:54.339Z,11.47
2023-04-08T08:50:23.303Z,11.45
2023-04-08T08:52:56.286Z,11.60
2023-04-08T08:55:50.354Z,11.22
2023-04-08T08:57:59.221Z,11.32
2023-04-08T09:00:34.683Z,11.43
2023-04-08T09:03:21.342Z,11.88
2023-04-08T09:05:52.207Z,11.68
2023-04-08T09:08:37.554Z,11.34
2023-04-08T09:11:21.897Z,11.50
2023-04-08T09:13:51.176Z,11.71
2023-04-08T09:16:22.908Z,11.81
2023-04-08T09:18:52.550Z,12.60
2023-04-08T09:21:25.539Z,12.78
2023-04-08T09:23:54.923Z,13.01
2023-04-08T09:26:25.417Z,12.80
2023-04-08T09:29:25.061Z,12.49
2023-04-08T09:31:44.618Z,12.81
2023-04-08T09:34:19.881Z,13.18
2023-04-08T09:36:51.361Z,13.85
2023-04-08T09:39:41.793Z,13.73
2023-04-08T09:42:12.756Z,13.06
2023-04-08T09:44:43.123Z,13.15
2023-04-08T09:47:23.832Z,12.72
2023-04-08T09:53:19.378Z,12.18
2023-04-08T09:55:52.166Z,12.58
2023-04-08T09:58:32.851Z,12.36
2023-04-08T10:01:02.546Z,12.44
2023-04-08T10:03:38.557Z,12.29
2023-04-08T10:09:38.130Z,12.49
2023-04-08T10:12:06.988Z,11.92
2023-04-08T10:14:35.863Z,11.93
2023-04-08T10:17:30.468Z,12.12
2023-04-08T10:20:03.392Z,12.28
2023-04-08T10:22:38.048Z,12.08
2023-04-08T10:25:48.266Z,12.63
2023-04-08T10:34:48.758Z,12.51
2023-04-08T10:37:17.628Z,12.69
2023-04-08T10:39:55.662Z,12.99
2023-04-08T10:42:26.220Z,13.12
2023-04-08T10:45:19.718Z,13.34
2023-04-08T10:47:58.003Z,13.49
2023-04-08T10:50:25.846Z,13.54
2023-04-08T10:57:15.232Z,13.22
2023-04-08T11:10:21.859Z,13.01
2023-04-08T11:12:51.354Z,13.34
2023-04-08T11:15:31.228Z,13.27
2023-04-08T11:17:57.266Z,13.39
2023-04-08T11:20:30.118Z,13.68
2023-04-08T11:23:02.159Z,13.65
2023-04-08T11:25:43.766Z,13.90
2023-04-08T11:28:20.877Z,14.11
2023-04-08T11:30:51.142Z,14.04
2023-04-08T11:33:19.946Z,14.51
2023-04-08T11:35:53.260Z,14.95
2023-04-08T11:38:30.809Z,14.91
2023-04-08T11:41:01.765Z,14.01
2023-04-08T11:43:30.870Z,14.09
2023-04-08T11:46:01.540Z,14.69
2023-04-08T12:25:03.986Z,14.23
2023-04-08T12:33:56.233Z,13.85
2023-04-08T12:36:27.454Z,13.69
2023-04-08T12:38:56.642Z,13.57
2023-04-08T12:41:25.276Z,13.36
2023-04-08T12:43:53.954Z,13.63
2023-04-08T12:46:24.460Z,12.97
2023-04-08T12:49:03.192Z,13.26
2023-04-08T12:54:33.515Z,13.26
2023-04-08T12:57:06.080Z,13.26
2023-04-08T12:59:34.847Z,12.83
2023-04-08T13:02:05.212Z,12.77
2023-04-08T13:04:34.107Z,12.69
2023-04-08T13:07:04.562Z,12.54
2023-04-08T13:09:33.368Z,12.31
2023-04-08T13:12:02.363Z,12.28
2023-04-08T13:14:31.543Z,12.26
2023-04-08T13:17:03.125Z,12.32
2023-04-08T13:19:31.921Z,12.34
2023-04-08T13:22:00.718Z,12.58
2023-04-08T13:24:29.357Z,12.61
2023-04-08T13:26:58.527Z,12.55
2023-04-08T13:29:27.212Z,12.82
2023-04-08T13:35:24.073Z,13.26
2023-04-08T13:37:52.780Z,13.39
2023-04-08T13:40:21.966Z,13.20
2023-04-08T13:42:52.299Z,13.66
2023-04-08T13:45:21.100Z,13.40
2023-04-08T13:47:49.784Z,13.68
2023-04-08T13:50:18.660Z,13.61
2023-04-08T13:52:47.480Z,13.88
2023-04-08T13:55:16.870Z,13.94
2023-04-08T13:57:45.898Z,13.84
2023-04-08T14:00:15.459Z,14.08
2023-04-08T14:02:44.369Z,13.90
2023-04-08T14:05:13.302Z,14.09
2023-04-08T14:07:44.338Z,13.45
2023-04-08T14:10:16.276Z,13.57
2023-04-08T14:12:46.935Z,14.18
2023-04-08T14:15:28.417Z,14.44
2023-04-08T14:17:57.589Z,13.36
2023-04-08T14:20:33.922Z,12.96
2023-04-08T14:23:08.616Z,12.98
2023-04-08T14:25:49.556Z,12.88
2023-04-08T14:28:10.196Z,12.21
2023-04-08T14:34:19.554Z,11.63
2023-04-08T14:36:50.510Z,11.35
2023-04-08T14:39:20.977Z,11.35
2023-04-08T14:41:49.743Z,11.58
2023-04-08T14:44:18.447Z,11.59
2023-04-08T14:46:47.449Z,11.80
2023-04-08T14:49:16.642Z,11.94
2023-04-08T14:51:46.899Z,12.10
2023-04-08T14:54:16.865Z,11.54
2023-04-08T14:56:46.220Z,11.38
2023-04-08T14:59:17.101Z,11.23
2023-04-08T15:01:46.106Z,11.29
2023-04-08T15:04:14.943Z,11.12
2023-04-08T15:06:44.671Z,11.12
2023-04-08T15:09:13.654Z,11.26
2023-04-08T15:11:42.413Z,11.01
2023-04-08T15:14:11.680Z,11.16
2023-04-08T15:16:40.461Z,10.65
2023-04-08T15:19:09.191Z,10.68
2023-04-08T15:21:37.900Z,11.24
2023-04-08T15:24:06.691Z,11.35
2023-04-08T15:26:35.433Z,11.40
2023-04-08T15:29:04.533Z,11.30
2023-04-08T15:31:35.220Z,11.31
2023-04-08T15:34:05.598Z,11.09
2023-04-08T15:36:36.220Z,11.14
2023-04-08T15:39:05.176Z,11.10
2023-04-08T15:41:34.003Z,11.07
2023-04-08T15:44:02.764Z,10.95
2023-04-08T15:46:31.587Z,10.79
2023-04-08T15:49:03.141Z,10.91
2023-04-08T15:51:53.714Z,10.99
2023-04-08T15:57:36.394Z,10.92
2023-04-08T16:00:18.228Z,10.85
2023-04-08T16:02:52.089Z,10.75
2023-04-08T16:05:18.025Z,10.73
2023-04-08T16:07:50.272Z,10.63
2023-04-08T16:10:20.553Z,10.62
2023-04-08T16:12:49.479Z,10.46
2023-04-08T16:15:18.679Z,10.48
2023-04-08T16:17:57.744Z,10.46
2023-04-08T16:24:09.726Z,9.95
2023-04-08T16:26:40.817Z,9.78
2023-04-08T16:29:09.553Z,9.72
2023-04-08T16:31:39.863Z,9.73
2023-04-08T16:34:10.220Z,9.64
2023-04-08T16:36:45.766Z,9.62
2023-04-08T16:39:09.590Z,9.60
2023-04-08T16:41:39.930Z,9.64
2023-04-08T16:44:32.035Z,9.63
2023-04-08T16:47:02.690Z,9.63
2023-04-08T16:49:38.753Z,9.71
2023-04-08T16:52:10.587Z,9.72
2023-04-08T16:54:42.608Z,9.84
2023-04-08T16:57:11.744Z,9.79
2023-04-08T16:59:40.447Z,9.83
2023-04-08T17:02:09.483Z,9.60
2023-04-08T17:04:38.572Z,9.48
2023-04-08T17:07:08.372Z,9.49
2023-04-08T17:09:37.493Z,9.48
2023-04-08T17:12:08.200Z,9.28
2023-04-08T17:14:42.356Z,9.45
2023-04-08T17:17:20.177Z,9.52
2023-04-08T17:20:06.373Z,9.38
2023-04-08T17:22:35.138Z,9.49
2023-04-08T17:25:03.982Z,8.83
2023-04-08T17:27:32.857Z,9.44
2023-04-08T17:30:01.583Z,9.50
2023-04-08T17:32:30.304Z,9.22
2023-04-08T17:34:59.035Z,9.20
2023-04-08T17:37:27.567Z,9.16
2023-04-08T17:39:56.248Z,9.18
2023-04-08T17:42:24.978Z,9.12
2023-04-08T17:44:58.197Z,9.10
2023-04-08T17:47:27.156Z,8.86
2023-04-08T17:49:58.720Z,9.12
2023-04-08T17:52:27.429Z,9.16
2023-04-08T17:54:56.158Z,9.16
2023-04-08T17:57:27.506Z,9.02
2023-04-08T17:59:56.216Z,8.97
2023-04-08T18:02:26.583Z,9.05
2023-04-08T18:04:56.967Z,8.80
2023-04-08T18:07:25.725Z,8.64
2023-04-08T18:09:54.684Z,8.39
2023-04-08T18:12:23.573Z,8.38
2023-04-08T18:14:52.352Z,8.41
2023-04-08T18:17:21.108Z,8.39
2023-04-08T18:19:50.086Z,8.42
2023-04-08T18:22:22.929Z,8.30
2023-04-08T18:24:53.258Z,8.21
2023-04-08T18:27:32.357Z,8.21
2023-04-08T18:30:08.020Z,8.29
2023-04-08T18:32:36.909Z,8.42
2023-04-08T18:35:11.032Z,8.28
2023-04-08T18:37:38.613Z,8.04
2023-04-08T18:40:37.333Z,8.00
2023-04-08T18:43:08.642Z,7.94
2023-04-08T18:45:45.935Z,7.98
2023-04-08T18:48:17.883Z,7.99
2023-04-08T18:50:48.872Z,7.98
2023-04-08T18:53:42.269Z,7.94
2023-04-08T18:56:18.643Z,7.98
2023-04-08T19:01:25.238Z,7.94
2023-04-08T19:04:22.190Z,7.55
2023-04-08T19:06:53.945Z,7.91
2023-04-08T19:09:21.891Z,7.99
2023-04-08T19:11:51.158Z,7.87
2023-04-08T19:14:20.080Z,7.81
2023-04-08T19:16:54.848Z,7.78
2023-04-08T19:19:21.142Z,7.70
2023-04-08T19:21:52.522Z,7.78
2023-04-08T19:24:21.392Z,7.76
2023-04-08T19:26:54.738Z,7.22
2023-04-08T19:29:24.561Z,7.73
2023-04-08T19:31:53.627Z,7.61
2023-04-08T19:34:22.394Z,7.68
2023-04-08T19:36:51.050Z,7.68
2023-04-08T19:39:19.899Z,7.61
2023-04-08T19:41:48.995Z,7.59
2023-04-08T19:44:17.847Z,7.52
2023-04-08T19:46:46.602Z,7.63
2023-04-08T19:49:20.032Z,7.61
2023-04-08T19:51:49.421Z,7.53
2023-04-08T19:54:24.213Z,7.53
2023-04-08T19:56:53.593Z,7.47
2023-04-08T19:59:24.107Z,7.32
2023-04-08T20:01:55.354Z,7.19
2023-04-08T20:04:24.349Z,7.34
2023-04-08T20:06:55.953Z,7.34
2023-04-08T20:09:24.958Z,7.18
2023-04-08T20:11:53.551Z,7.62
2023-04-08T20:14:22.530Z,7.64
2023-04-08T20:16:51.182Z,7.73
2023-04-08T20:19:19.863Z,7.80
2023-04-08T20:21:48.817Z,7.82
2023-04-08T20:24:17.924Z,7.93
2023-04-08T20:26:46.528Z,7.88
2023-04-08T20:29:15.220Z,7.84
2023-04-08T20:31:44.911Z,7.62
2023-04-08T20:34:14.320Z,7.63
2023-04-08T20:36:44.086Z,7.61
2023-04-08T20:39:13.117Z,7.53
2023-04-08T20:41:44.222Z,7.49
2023-04-08T20:44:13.112Z,7.65
2023-04-08T20:46:42.732Z,7.72
2023-04-08T20:49:12.469Z,7.76
2023-04-08T20:51:42.911Z,7.83
2023-04-08T20:54:11.868Z,7.76
2023-04-08T20:56:40.672Z,7.72
2023-04-08T20:59:09.837Z,7.64
2023-04-08T21:01:38.450Z,7.61
2023-04-08T21:04:07.274Z,7.48
2023-04-08T21:06:37.757Z,7.51
2023-04-08T21:09:06.344Z,7.41
2023-04-08T21:11:35.438Z,7.42
2023-04-08T21:14:04.169Z,7.37
2023-04-08T21:16:32.818Z,7.35
2023-04-08T21:19:02.156Z,7.39
2023-04-08T21:21:31.646Z,7.33
2023-04-08T21:24:00.828Z,7.32
2023-04-08T21:26:29.510Z,7.26
2023-04-08T21:28:58.273Z,7.23
2023-04-08T21:31:27.417Z,7.11
2023-04-08T21:33:56.565Z,7.10
2023-04-08T21:36:27.338Z,7.15
2023-04-08T21:38:57.262Z,7.12
2023-04-08T21:41:26.452Z,7.05
2023-04-08T21:43:57.350Z,7.13
2023-04-08T21:46:26.127Z,7.08
2023-04-08T21:48:55.102Z,7.18
2023-04-08T21:51:23.943Z,7.14
2023-04-08T21:53:53.445Z,7.19
2023-04-08T21:56:22.459Z,7.11
2023-04-08T21:58:51.502Z,7.11
2023-04-08T22:01:20.689Z,7.04
2023-04-08T22:03:49.692Z,7.01
2023-04-08T22:06:29.093Z,7.02
2023-04-08T22:08:50.695Z,7.03
2023-04-08T22:11:19.699Z,6.91
2023-04-08T22:13:49.591Z,6.88
2023-04-08T22:16:18.272Z,6.73
2023-04-08T22:18:48.375Z,6.57
2023-04-08T22:21:17.068Z,6.49
2023-04-08T22:23:46.174Z,6.39
2023-04-08T22:26:15.748Z,6.33
2023-04-08T22:28:44.787Z,6.25
2023-04-08T22:31:15.026Z,6.16
2023-04-08T22:33:43.699Z,6.09
2023-04-08T22:36:12.435Z,6.04
2023-04-08T22:38:41.963Z,6.03
2023-04-08T22:41:24.685Z,5.95
2023-04-08T22:43:53.412Z,5.93
2023-04-08T22:46:22.087Z,5.95
2023-04-08T22:48:51.187Z,6.03
2023-04-08T22:51:20.913Z,6.10
2023-04-08T22:53:49.866Z,6.12
2023-04-08T22:56:18.907Z,6.23
2023-04-08T22:58:47.597Z,6.18
2023-04-08T23:01:20.102Z,6.24
2023-04-08T23:03:49.102Z,6.16
2023-04-08T23:06:18.003Z,6.06
2023-04-08T23:08:46.782Z,6.00
2023-04-08T23:11:15.572Z,6.06
2023-04-08T23:13:45.915Z,6.16
2023-04-08T23:16:14.798Z,6.28
2023-04-08T23:18:43.605Z,6.26
2023-04-08T23:21:12.374Z,6.35
2023-04-08T23:23:41.061Z,6.24
2023-04-08T23:26:11.231Z,6.21
2023-04-08T23:28:39.945Z,6.24
2023-04-08T23:31:08.654Z,6.21
2023-04-08T23:33:38.530Z,6.16
2023-04-08T23:36:16.318Z,6.21
2023-04-08T23:38:45.128Z,6.29
2023-04-08T23:41:13.764Z,6.39
2023-04-08T23:43:42.451Z,6.41
2023-04-08T23:46:11.163Z,6.33
2023-04-08T23:48:41.531Z,6.45
2023-04-08T23:51:11.869Z,6.52
2023-04-08T23:53:41.306Z,6.63
2023-04-08T23:56:11.068Z,6.60
2023-04-08T23:58:39.726Z,6.53
